YMML/MEL METAR and TAF weather

Enter ICAO airport designator
Station Type Date Time Source
YMML METAR 2020/01/23 06:00 UTC NOAA

YMML 230600Z 29018KT CAVOK 21/07 Q1000


Station Type Date Time Source
YMML Decoded METAR 2020/01/23 06:00 UTC NOAA

Melbourne Airport, Australia (YMML) 37-40S 144-50E 141M
Jan 23, 2020 - 01:00 AM EST / 2020.01.23 0600 UTC
Wind: from the WNW (290 degrees) at 21 MPH (18 KT):0
Visibility: greater than 7 mile(s):0
Temperature: 69 F (21 C)
Dew Point: 44 F (7 C)
Relative Humidity: 40%
Pressure (altimeter): 29.53 in. Hg (1000 hPa)
ob: YMML 230600Z 29018KT CAVOK 21/07 Q1000
cycle: 6

Station Type Date Time Source
YMML TAF 2020/01/23 06:37 UTC NOAA

TAF YMML 230522Z 2306/2412 27018G28KT 9999 FEW040
BECMG 2309/2311 34010KT CAVOK
FM240000 27012KT 9999 SCT040
FM240900 33008KT 9999 FEW040

Example: see airport list